Normal, Illinois
Current Conditions -  °F | °C
As of 9:56 AM on Thursday 29 Jan 2015 (Local Time) from KBMI Reporting Station
Haze Haze  
Wind Chill: 23°   Ceiling: 1100
Heat Index: 35°   Visibility: 5mi
Dew Point: 31°   Wind: 23mph
Humidity: 86%   Direction: 310°NW
Pressure: 29.97"   Gusts: 26mph
Location:  40.51°N, 88.99°W
Report Text: KBMI 291556Z 31020G23KT 5SM BR OVC011 02/M01 A2997 RMK AO2 T00161005 UPB02E06 P0000 PK WND 31027/1459 SLP162
Loading
Personal Weather Stations






























Interactive Weather Map New forecast layout! Learn more

10-Day Weather Forecast

Advertisements
Track Severe Weather on mobile